createdAt,value
2022-09-26T00:01:21.813Z,4.40
2022-09-26T00:03:24.150Z,7.13
2022-09-26T00:05:26.580Z,8.20
2022-09-26T00:07:28.579Z,6.57
2022-09-26T00:09:30.572Z,4.15
2022-09-26T00:11:34.456Z,6.20
2022-09-26T00:13:40.570Z,3.85
2022-09-26T00:15:42.743Z,6.53
2022-09-26T00:17:47.134Z,3.55
2022-09-26T00:19:49.348Z,8.25
2022-09-26T00:21:51.846Z,4.68
2022-09-26T00:23:55.369Z,4.85
2022-09-26T00:26:00.961Z,3.95
2022-09-26T00:28:03.422Z,5.00
2022-09-26T00:30:06.808Z,6.47
2022-09-26T00:32:08.864Z,3.63
2022-09-26T00:34:15.902Z,6.00
2022-09-26T00:36:18.266Z,3.55
2022-09-26T00:38:20.973Z,5.43
2022-09-26T00:40:28.266Z,4.90
2022-09-26T00:42:30.425Z,3.33
2022-09-26T00:44:50.657Z,5.20
2022-09-26T00:46:52.884Z,5.55
2022-09-26T00:49:13.874Z,3.53
2022-09-26T00:51:16.206Z,4.40
2022-09-26T00:53:26.173Z,3.22
2022-09-26T00:55:35.199Z,5.22
2022-09-26T00:57:48.606Z,3.80
2022-09-26T00:59:59.758Z,8.68
2022-09-26T01:02:02.756Z,4.30
2022-09-26T01:04:07.525Z,5.15
2022-09-26T01:06:09.599Z,5.30
2022-09-26T01:08:15.213Z,3.85
2022-09-26T01:10:17.388Z,4.28
2022-09-26T01:12:23.579Z,4.40
2022-09-26T01:14:25.661Z,4.43
2022-09-26T01:16:28.576Z,3.30
2022-09-26T01:18:31.234Z,4.18
2022-09-26T01:20:39.548Z,5.90
2022-09-26T01:22:50.149Z,5.05
2022-09-26T01:25:07.601Z,4.63
2022-09-26T01:27:40.224Z,3.47
2022-09-26T01:29:54.213Z,3.53
2022-09-26T01:32:37.573Z,6.68
2022-09-26T01:35:08.813Z,6.13
2022-09-26T01:37:34.469Z,6.15
2022-09-26T01:40:04.787Z,7.55
2022-09-26T01:42:15.877Z,4.35
2022-09-26T01:44:41.055Z,5.38
2022-09-26T01:47:01.477Z,4.90
2022-09-26T01:49:25.182Z,9.15
2022-09-26T01:51:41.490Z,4.68
2022-09-26T01:53:54.109Z,5.82
2022-09-26T01:56:12.022Z,5.80
2022-09-26T01:58:33.656Z,4.68
2022-09-26T02:00:38.962Z,6.22
2022-09-26T02:02:48.859Z,6.55
2022-09-26T02:04:55.627Z,8.65
2022-09-26T02:07:25.146Z,9.68
2022-09-26T02:09:39.000Z,4.65
2022-09-26T02:11:49.407Z,6.53
2022-09-26T02:13:55.803Z,6.00
2022-09-26T02:16:08.480Z,11.35
2022-09-26T02:18:20.547Z,8.98
2022-09-26T02:20:35.225Z,7.38
2022-09-26T02:22:40.310Z,6.22
2022-09-26T02:24:42.406Z,7.30
2022-09-26T02:26:45.006Z,5.65
2022-09-26T02:28:47.525Z,5.93
2022-09-26T02:30:54.542Z,6.57
2022-09-26T02:32:57.790Z,6.07
2022-09-26T02:35:01.551Z,5.13
2022-09-26T02:37:08.106Z,9.27
2022-09-26T02:39:13.430Z,7.55
2022-09-26T02:41:29.712Z,7.13
2022-09-26T02:43:46.025Z,9.45
2022-09-26T02:46:00.716Z,9.65
2022-09-26T02:48:23.092Z,10.57
2022-09-26T02:50:40.348Z,9.38
2022-09-26T02:53:22.921Z,9.25
2022-09-26T02:55:39.728Z,9.82
2022-09-26T02:58:05.724Z,8.23
2022-09-26T03:00:20.255Z,8.52
2022-09-26T03:02:34.377Z,9.60
2022-09-26T03:05:13.411Z,13.60
2022-09-26T03:07:24.815Z,9.57
2022-09-26T03:09:29.714Z,10.00
2022-09-26T03:11:33.817Z,10.15
2022-09-26T03:13:39.326Z,15.40
2022-09-26T03:15:45.771Z,14.80
2022-09-26T03:17:54.367Z,12.40
2022-09-26T03:20:05.309Z,12.80
2022-09-26T03:22:10.809Z,13.20
2022-09-26T03:24:14.088Z,11.88
2022-09-26T03:26:20.066Z,11.43
2022-09-26T03:28:32.754Z,13.00
2022-09-26T03:30:37.933Z,10.70
2022-09-26T03:33:03.403Z,11.85
2022-09-26T03:35:10.007Z,11.10
2022-09-26T03:37:12.494Z,10.95
2022-09-26T03:39:15.261Z,12.43
2022-09-26T03:41:25.445Z,11.93
2022-09-26T03:43:43.951Z,12.98
2022-09-26T03:45:47.413Z,9.68
2022-09-26T03:47:57.334Z,7.35
2022-09-26T03:50:00.359Z,10.90
2022-09-26T03:52:03.981Z,8.98
2022-09-26T03:54:06.346Z,9.20
2022-09-26T03:56:15.268Z,7.40
2022-09-26T03:58:18.159Z,6.28
2022-09-26T04:00:20.129Z,7.38
2022-09-26T04:02:22.933Z,6.07
2022-09-26T04:04:36.988Z,5.57
2022-09-26T04:06:39.338Z,5.00
2022-09-26T04:08:42.557Z,7.20
2022-09-26T04:10:46.287Z,7.10
2022-09-26T04:12:48.887Z,7.57
2022-09-26T04:14:52.264Z,7.60
2022-09-26T04:16:56.994Z,6.82
2022-09-26T04:19:06.669Z,6.80
2022-09-26T04:21:16.893Z,6.80
2022-09-26T04:23:19.005Z,6.70
2022-09-26T04:25:21.085Z,7.70
2022-09-26T04:27:27.816Z,5.10
2022-09-26T04:29:29.922Z,9.07
2022-09-26T04:31:45.610Z,5.22
2022-09-26T04:33:57.269Z,6.85
2022-09-26T04:36:04.051Z,5.25
2022-09-26T04:38:12.203Z,7.47
2022-09-26T04:40:14.573Z,10.50
2022-09-26T04:42:28.099Z,9.18
2022-09-26T04:44:30.690Z,10.90
2022-09-26T04:46:34.150Z,10.43
2022-09-26T04:48:36.778Z,8.43
2022-09-26T04:50:49.289Z,11.02
2022-09-26T04:52:51.649Z,8.95
2022-09-26T04:54:53.935Z,8.55
2022-09-26T04:56:56.204Z,9.60
2022-09-26T04:58:59.803Z,5.80
2022-09-26T05:01:14.626Z,5.03
2022-09-26T05:03:31.192Z,4.35
2022-09-26T05:05:33.997Z,5.28
2022-09-26T05:07:43.763Z,4.80
2022-09-26T05:09:46.695Z,6.65
2022-09-26T05:11:51.555Z,10.55
2022-09-26T05:13:54.196Z,8.90
2022-09-26T05:16:03.097Z,10.10
2022-09-26T05:18:08.146Z,15.35
2022-09-26T05:20:11.556Z,12.70
2022-09-26T05:22:31.773Z,16.80
2022-09-26T05:24:52.916Z,14.20
2022-09-26T05:26:55.767Z,14.55
2022-09-26T05:29:06.863Z,10.82
2022-09-26T05:31:30.708Z,9.82
2022-09-26T05:33:32.707Z,9.98
2022-09-26T05:35:34.913Z,7.82
2022-09-26T05:37:37.380Z,6.10
2022-09-26T05:39:58.557Z,5.75
2022-09-26T05:42:04.813Z,6.72
2022-09-26T05:44:06.678Z,6.53
2022-09-26T05:46:12.301Z,7.05
2022-09-26T05:48:20.927Z,6.57
2022-09-26T05:50:24.863Z,6.80
2022-09-26T05:52:28.915Z,6.80
2022-09-26T05:54:31.231Z,11.68
2022-09-26T05:56:37.652Z,7.60
2022-09-26T05:58:42.802Z,14.27
2022-09-26T06:00:51.670Z,17.80
2022-09-26T06:02:58.886Z,17.48
2022-09-26T06:05:11.686Z,17.02
2022-09-26T06:07:28.116Z,16.67
2022-09-26T06:09:30.226Z,13.93
2022-09-26T06:11:48.948Z,12.57
2022-09-26T06:13:51.963Z,14.68
2022-09-26T06:15:54.772Z,11.05
2022-09-26T06:18:04.973Z,10.70
2022-09-26T06:20:08.941Z,11.68
2022-09-26T06:22:11.968Z,13.20
2022-09-26T06:24:14.428Z,12.07
2022-09-26T06:26:23.755Z,10.15
2022-09-26T06:28:27.144Z,10.52
2022-09-26T06:30:29.448Z,9.68
2022-09-26T06:32:41.607Z,7.75
2022-09-26T06:34:58.384Z,8.15
2022-09-26T06:37:19.011Z,8.70
2022-09-26T06:39:21.504Z,8.70
2022-09-26T06:41:26.627Z,10.50
2022-09-26T06:43:29.332Z,6.85
2022-09-26T06:45:50.900Z,11.63
2022-09-26T06:48:05.106Z,5.53
2022-09-26T06:50:23.244Z,6.90
2022-09-26T06:52:35.086Z,6.38
2022-09-26T06:54:38.318Z,5.38
2022-09-26T06:56:40.838Z,4.70
2022-09-26T06:58:43.277Z,7.53
2022-09-26T07:00:45.861Z,8.68
2022-09-26T07:03:01.476Z,7.03
2022-09-26T07:05:24.857Z,6.68
2022-09-26T07:07:28.182Z,7.93
2022-09-26T07:09:30.441Z,9.35
2022-09-26T07:12:09.376Z,17.45
2022-09-26T07:14:02.380Z,36.97
2022-09-26T07:16:05.678Z,24.73
2022-09-26T07:18:27.060Z,29.35
2022-09-26T07:20:40.406Z,85.00
2022-09-26T07:23:11.402Z,138.55
2022-09-26T07:25:15.665Z,108.75
2022-09-26T07:27:18.527Z,93.97
2022-09-26T07:29:22.171Z,80.47
2022-09-26T07:31:24.957Z,123.43
2022-09-26T07:33:51.262Z,116.68
2022-09-26T07:35:54.172Z,126.10
2022-09-26T07:37:59.939Z,151.20
2022-09-26T07:40:03.336Z,162.75
2022-09-26T07:42:08.896Z,173.38
2022-09-26T07:46:51.812Z,158.43
2022-09-26T07:49:13.073Z,108.32
2022-09-26T07:51:33.822Z,117.68
2022-09-26T07:53:41.435Z,119.15
2022-09-26T07:56:10.536Z,133.98
2022-09-26T07:58:48.539Z,166.07
2022-09-26T08:01:15.551Z,174.63
2022-09-26T08:03:37.238Z,171.05
2022-09-26T08:05:48.948Z,141.35
2022-09-26T08:07:53.283Z,131.75
2022-09-26T08:10:21.402Z,87.35
2022-09-26T08:12:42.935Z,50.10
2022-09-26T08:14:59.074Z,41.67
2022-09-26T08:17:14.511Z,31.65
2022-09-26T08:19:17.672Z,27.23
2022-09-26T08:21:22.234Z,22.45
2022-09-26T08:23:27.184Z,23.73
2022-09-26T08:25:55.672Z,29.30
2022-09-26T08:28:18.713Z,31.08
2022-09-26T08:30:27.928Z,26.60
2022-09-26T08:32:32.541Z,21.13
2022-09-26T08:34:35.682Z,19.00
2022-09-26T08:36:58.487Z,17.88
2022-09-26T08:39:23.211Z,15.40
2022-09-26T08:42:11.849Z,17.55
2022-09-26T08:44:58.597Z,15.90
2022-09-26T08:47:35.685Z,23.58
2022-09-26T08:50:20.584Z,23.85
2022-09-26T08:52:39.807Z,17.27
2022-09-26T08:54:46.439Z,16.02
2022-09-26T08:56:57.771Z,13.93
2022-09-26T08:59:05.417Z,13.23
2022-09-26T09:01:18.308Z,10.88
2022-09-26T09:04:16.615Z,13.82
2022-09-26T09:06:19.744Z,14.27
2022-09-26T09:08:25.618Z,10.60
2022-09-26T09:11:10.761Z,13.70
2022-09-26T09:13:18.716Z,10.88
2022-09-26T09:16:09.563Z,9.27
2022-09-26T09:18:56.613Z,12.45
2022-09-26T09:21:38.013Z,8.85
2022-09-26T09:24:29.660Z,10.43
2022-09-26T09:29:38.078Z,12.75
2022-09-26T09:32:09.686Z,11.70
2022-09-26T09:34:44.931Z,14.32
2022-09-26T09:37:23.503Z,10.52
2022-09-26T09:39:48.180Z,14.88
2022-09-26T09:41:58.694Z,14.18
2022-09-26T09:44:05.758Z,12.52
2022-09-26T09:46:19.869Z,10.55
2022-09-26T09:48:24.135Z,11.60
2022-09-26T09:51:00.948Z,12.05
2022-09-26T09:53:38.428Z,11.70
2022-09-26T09:56:01.137Z,12.95
2022-09-26T09:58:41.478Z,10.07
2022-09-26T10:01:02.789Z,12.98
2022-09-26T10:03:38.248Z,10.15
2022-09-26T10:05:47.054Z,10.02
2022-09-26T10:07:59.503Z,9.57
2022-09-26T10:10:39.041Z,9.80
2022-09-26T10:13:11.295Z,11.95
2022-09-26T10:16:16.441Z,6.68
2022-09-26T10:18:28.297Z,6.95
2022-09-26T10:20:54.103Z,7.50
2022-09-26T10:22:56.283Z,8.18
2022-09-26T10:25:08.784Z,4.75
2022-09-26T10:27:32.318Z,4.00
2022-09-26T10:29:38.143Z,19.38
2022-09-26T10:31:43.727Z,31.42
2022-09-26T10:33:59.500Z,25.83
2022-09-26T10:36:19.813Z,46.42
2022-09-26T10:38:29.957Z,14.60
2022-09-26T10:40:53.393Z,7.60
2022-09-26T10:43:19.432Z,6.68
2022-09-26T10:45:27.753Z,6.43
2022-09-26T10:48:07.103Z,10.63
2022-09-26T10:50:28.636Z,10.45
2022-09-26T10:52:56.817Z,10.43
2022-09-26T10:55:07.226Z,7.90
2022-09-26T10:57:22.440Z,8.48
2022-09-26T10:59:27.496Z,7.13
2022-09-26T11:01:31.904Z,8.27
2022-09-26T11:03:44.127Z,9.45
2022-09-26T11:05:59.842Z,14.20
2022-09-26T11:08:10.399Z,11.05
2022-09-26T11:10:32.632Z,8.60
2022-09-26T11:13:16.775Z,17.75
2022-09-26T11:15:19.904Z,27.67
2022-09-26T11:17:22.160Z,27.95
2022-09-26T11:19:53.849Z,42.30
2022-09-26T11:22:27.201Z,32.47
2022-09-26T11:24:42.930Z,36.63
2022-09-26T11:27:27.325Z,90.72
2022-09-26T11:29:55.869Z,51.08
2022-09-26T11:32:00.385Z,60.83
2022-09-26T11:34:29.722Z,44.00
2022-09-26T11:37:02.556Z,24.10
2022-09-26T11:39:28.681Z,14.77
2022-09-26T11:42:07.572Z,10.55
2022-09-26T11:44:27.405Z,18.33
2022-09-26T11:47:29.389Z,29.90
2022-09-26T11:49:44.344Z,19.50
2022-09-26T11:52:20.799Z,12.75
2022-09-26T11:54:45.802Z,12.18
2022-09-26T11:57:11.947Z,14.82
2022-09-26T11:59:42.216Z,20.00
2022-09-26T12:01:56.036Z,14.80
2022-09-26T12:04:06.562Z,10.48
2022-09-26T12:06:36.812Z,9.35
2022-09-26T12:09:10.115Z,12.65
2022-09-26T12:11:32.950Z,15.02
2022-09-26T12:13:54.595Z,15.05
2022-09-26T12:16:14.607Z,22.20
2022-09-26T12:18:43.971Z,12.40
2022-09-26T12:21:08.935Z,16.08
2022-09-26T12:23:29.842Z,14.25
2022-09-26T12:25:47.502Z,13.90
2022-09-26T12:28:27.151Z,14.55
2022-09-26T12:30:44.100Z,17.55
2022-09-26T12:32:56.642Z,17.27
2022-09-26T12:35:29.727Z,15.57
2022-09-26T12:38:24.096Z,13.85
2022-09-26T12:41:07.110Z,12.73
2022-09-26T12:43:45.058Z,11.95
2022-09-26T12:46:12.446Z,6.68
2022-09-26T12:48:40.983Z,8.20
2022-09-26T12:51:01.655Z,7.47
2022-09-26T12:53:19.427Z,8.88
2022-09-26T12:55:45.751Z,18.80
2022-09-26T12:58:12.224Z,8.40
2022-09-26T13:00:21.015Z,7.03
2022-09-26T13:02:40.590Z,6.93
2022-09-26T13:04:52.579Z,8.52
2022-09-26T13:07:26.529Z,11.13
2022-09-26T13:09:37.463Z,14.15
2022-09-26T13:11:48.766Z,20.80
2022-09-26T13:14:12.329Z,17.17
2022-09-26T13:16:43.907Z,35.63
2022-09-26T13:18:53.956Z,22.60
2022-09-26T13:21:03.110Z,22.67
2022-09-26T13:23:27.609Z,22.25
2022-09-26T13:25:50.031Z,16.42
2022-09-26T13:28:38.044Z,31.08
2022-09-26T13:30:46.584Z,50.53
2022-09-26T13:33:11.304Z,68.57
2022-09-26T13:35:20.986Z,43.35
2022-09-26T13:37:39.802Z,30.90
2022-09-26T13:39:50.913Z,36.17
2022-09-26T13:42:42.778Z,27.63
2022-09-26T13:45:12.692Z,37.40
2022-09-26T13:47:35.701Z,41.10
2022-09-26T13:50:20.096Z,26.33
2022-09-26T13:53:05.469Z,27.45
2022-09-26T13:55:10.867Z,26.20
2022-09-26T13:57:52.449Z,16.80
2022-09-26T13:59:54.747Z,59.17
2022-09-26T14:02:28.444Z,58.85
2022-09-26T14:04:37.757Z,57.47
2022-09-26T14:07:04.337Z,33.05
2022-09-26T14:09:27.151Z,16.25
2022-09-26T14:11:49.932Z,17.95
2022-09-26T14:14:16.484Z,16.75
2022-09-26T14:16:27.734Z,18.77
2022-09-26T14:19:04.449Z,17.52
2022-09-26T14:21:23.825Z,33.30
2022-09-26T14:23:50.752Z,60.97
2022-09-26T14:25:57.069Z,28.30
2022-09-26T14:28:31.953Z,29.90
2022-09-26T14:30:37.747Z,48.45
2022-09-26T14:32:44.517Z,58.63
2022-09-26T14:34:59.690Z,54.55
2022-09-26T14:37:06.049Z,40.80
2022-09-26T14:39:24.709Z,52.15
2022-09-26T14:41:33.677Z,48.00
2022-09-26T14:43:36.346Z,27.27
2022-09-26T14:45:50.538Z,20.77
2022-09-26T14:48:11.730Z,66.90
2022-09-26T14:50:20.786Z,54.70
2022-09-26T14:52:25.500Z,42.25
2022-09-26T14:54:41.392Z,37.47
2022-09-26T14:56:50.792Z,32.97
2022-09-26T14:58:54.269Z,32.08
2022-09-26T15:00:58.062Z,26.88
2022-09-26T15:03:06.382Z,23.35
2022-09-26T15:05:08.674Z,36.33
2022-09-26T15:07:20.774Z,24.15
2022-09-26T15:09:45.336Z,15.88
2022-09-26T15:11:58.507Z,12.25
2022-09-26T15:14:16.999Z,10.43
2022-09-26T15:16:41.099Z,8.20
2022-09-26T15:18:49.002Z,8.63
2022-09-26T15:21:01.796Z,13.88
2022-09-26T15:23:23.875Z,18.58
2022-09-26T15:25:55.560Z,30.20
2022-09-26T15:27:59.673Z,34.13
2022-09-26T15:30:27.607Z,30.85
2022-09-26T15:32:32.596Z,36.00
2022-09-26T15:34:40.110Z,32.67
2022-09-26T15:36:44.552Z,36.25
2022-09-26T15:38:47.515Z,33.22
2022-09-26T15:41:01.814Z,29.55
2022-09-26T15:43:11.647Z,30.55
2022-09-26T15:45:27.691Z,29.50
2022-09-26T15:47:30.317Z,26.10
2022-09-26T15:49:33.107Z,24.17
2022-09-26T15:51:39.468Z,16.67
2022-09-26T15:54:09.909Z,15.25
2022-09-26T15:56:43.497Z,13.18
2022-09-26T15:58:54.794Z,14.15
2022-09-26T16:01:00.459Z,13.35
2022-09-26T16:03:24.003Z,12.30
2022-09-26T16:05:28.256Z,12.77
2022-09-26T16:07:33.591Z,21.02
2022-09-26T16:09:43.369Z,23.15
2022-09-26T16:11:50.478Z,21.88
2022-09-26T16:13:53.957Z,25.38
2022-09-26T16:16:04.464Z,18.23
2022-09-26T16:18:25.603Z,21.00
2022-09-26T16:20:31.739Z,18.15
2022-09-26T16:22:45.518Z,15.48
2022-09-26T16:24:47.755Z,14.35
2022-09-26T16:26:53.725Z,14.82
2022-09-26T16:28:58.137Z,15.73
2022-09-26T16:31:13.863Z,12.40
2022-09-26T16:33:31.246Z,16.65
2022-09-26T16:35:36.074Z,13.15
2022-09-26T16:37:38.678Z,14.10
2022-09-26T16:39:41.297Z,12.88
2022-09-26T16:42:02.377Z,16.63
2022-09-26T16:44:26.203Z,12.45
2022-09-26T16:46:36.013Z,13.55
2022-09-26T16:48:50.327Z,12.15
2022-09-26T16:51:13.707Z,12.43
2022-09-26T16:53:15.775Z,13.85
2022-09-26T16:55:17.971Z,12.85
2022-09-26T16:57:26.699Z,10.80
2022-09-26T16:59:31.650Z,12.10
2022-09-26T17:01:52.984Z,10.30
2022-09-26T17:03:59.877Z,11.45
2022-09-26T17:06:02.588Z,11.98
2022-09-26T17:08:07.050Z,13.13
2022-09-26T17:10:09.925Z,10.30
2022-09-26T17:12:12.092Z,15.45
2022-09-26T17:14:21.237Z,11.73
2022-09-26T17:16:23.592Z,12.30
2022-09-26T17:18:33.434Z,13.05
2022-09-26T17:20:36.250Z,15.55
2022-09-26T17:22:39.306Z,16.42
2022-09-26T17:24:42.724Z,14.10
2022-09-26T17:26:56.714Z,17.40
2022-09-26T17:29:01.533Z,18.98
2022-09-26T17:31:07.830Z,14.40
2022-09-26T17:33:11.073Z,21.00
2022-09-26T17:35:20.200Z,25.38
2022-09-26T17:37:22.729Z,24.33
2022-09-26T17:39:27.907Z,23.05
2022-09-26T17:41:32.758Z,27.67
2022-09-26T17:43:34.833Z,25.70
2022-09-26T17:45:44.285Z,26.98
2022-09-26T17:47:46.891Z,71.85
2022-09-26T17:49:54.956Z,105.15
2022-09-26T17:52:00.875Z,80.72
2022-09-26T17:54:07.044Z,62.70
2022-09-26T17:56:11.377Z,58.60
2022-09-26T17:58:13.750Z,50.47
2022-09-26T18:00:18.174Z,38.75
2022-09-26T18:02:37.250Z,41.35
2022-09-26T18:04:41.600Z,36.35
2022-09-26T18:06:44.194Z,37.53
2022-09-26T18:08:46.586Z,39.35
2022-09-26T18:10:52.817Z,38.85
2022-09-26T18:12:59.191Z,38.47
2022-09-26T18:15:04.979Z,34.30
2022-09-26T18:17:07.537Z,37.47
2022-09-26T18:19:10.472Z,34.45
2022-09-26T18:21:15.800Z,35.25
2022-09-26T18:23:21.938Z,29.83
2022-09-26T18:25:25.527Z,33.03
2022-09-26T18:27:27.806Z,35.28
2022-09-26T18:29:37.376Z,37.83
2022-09-26T18:31:41.391Z,33.15
2022-09-26T18:33:43.671Z,38.28
2022-09-26T18:35:47.897Z,31.35
2022-09-26T18:37:52.120Z,34.25
2022-09-26T18:39:56.402Z,33.90
2022-09-26T18:42:06.194Z,34.65
2022-09-26T18:44:16.882Z,33.00
2022-09-26T18:46:19.639Z,32.65
2022-09-26T18:48:34.077Z,39.88
2022-09-26T18:50:38.562Z,44.03
2022-09-26T18:52:40.693Z,39.60
2022-09-26T18:54:45.232Z,41.25
2022-09-26T18:57:07.197Z,39.03
2022-09-26T18:59:10.406Z,41.55
2022-09-26T19:01:21.409Z,39.35
2022-09-26T19:03:25.537Z,44.00
2022-09-26T19:05:27.680Z,42.25
2022-09-26T19:07:33.425Z,46.60
2022-09-26T19:09:36.582Z,38.85
2022-09-26T19:11:38.776Z,37.42
2022-09-26T19:13:41.970Z,38.58
2022-09-26T19:15:44.500Z,35.50
2022-09-26T19:17:48.392Z,33.60
2022-09-26T19:19:51.427Z,32.92
2022-09-26T19:22:12.702Z,29.63
2022-09-26T19:24:54.509Z,26.90
2022-09-26T19:27:06.608Z,22.42
2022-09-26T19:29:14.714Z,22.25
2022-09-26T19:31:16.845Z,18.13
2022-09-26T19:33:19.991Z,20.33
2022-09-26T19:35:32.407Z,16.17
2022-09-26T19:37:37.376Z,14.07
2022-09-26T19:39:39.821Z,15.75
2022-09-26T19:41:42.772Z,19.15
2022-09-26T19:43:47.580Z,20.55
2022-09-26T19:45:53.367Z,14.63
2022-09-26T19:47:56.427Z,16.15
2022-09-26T19:49:58.766Z,19.58
2022-09-26T19:52:02.642Z,16.70
2022-09-26T19:54:06.479Z,15.38
2022-09-26T19:56:09.287Z,18.40
2022-09-26T19:58:26.105Z,22.02
2022-09-26T20:00:29.218Z,18.65
2022-09-26T20:02:32.789Z,20.30
2022-09-26T20:04:34.936Z,23.90
2022-09-26T20:06:36.955Z,23.50
2022-09-26T20:08:38.983Z,26.25
2022-09-26T20:10:41.396Z,35.05
2022-09-26T20:12:44.480Z,28.05
2022-09-26T20:14:46.699Z,27.80
2022-09-26T20:16:50.080Z,21.90
2022-09-26T20:18:58.680Z,22.38
2022-09-26T20:21:03.670Z,20.35
2022-09-26T20:23:13.282Z,20.90
2022-09-26T20:25:27.504Z,16.13
2022-09-26T20:27:34.208Z,16.27
2022-09-26T20:29:54.640Z,16.42
2022-09-26T20:31:56.701Z,17.00
2022-09-26T20:34:00.298Z,17.77
2022-09-26T20:36:04.969Z,19.05
2022-09-26T20:38:21.246Z,18.77
2022-09-26T20:40:24.379Z,22.20
2022-09-26T20:42:33.099Z,20.25
2022-09-26T20:44:36.551Z,19.45
2022-09-26T20:46:43.427Z,19.10
2022-09-26T20:48:48.003Z,20.30
2022-09-26T20:50:51.034Z,22.02
2022-09-26T20:52:53.528Z,20.50
2022-09-26T20:54:57.115Z,21.80
2022-09-26T20:57:01.479Z,18.83
2022-09-26T20:59:03.652Z,25.05
2022-09-26T21:01:06.201Z,20.83
2022-09-26T21:03:12.832Z,21.58
2022-09-26T21:05:18.085Z,20.58
2022-09-26T21:07:21.547Z,19.40
2022-09-26T21:09:24.182Z,23.05
2022-09-26T21:11:26.329Z,19.33
2022-09-26T21:13:28.816Z,21.05
2022-09-26T21:15:33.430Z,19.15
2022-09-26T21:17:36.107Z,18.42
2022-09-26T21:19:38.417Z,19.02
2022-09-26T21:22:02.069Z,18.45
2022-09-26T21:24:35.334Z,20.42
2022-09-26T21:26:37.689Z,19.40
2022-09-26T21:28:40.606Z,19.10
2022-09-26T21:30:43.758Z,22.90
2022-09-26T21:32:53.548Z,18.83
2022-09-26T21:35:01.715Z,22.48
2022-09-26T21:37:04.216Z,21.80
2022-09-26T21:39:06.754Z,27.90
2022-09-26T21:41:09.836Z,39.30
2022-09-26T21:43:16.270Z,40.17
2022-09-26T21:45:23.606Z,38.78
2022-09-26T21:47:29.002Z,34.22
2022-09-26T21:49:31.288Z,31.33
2022-09-26T21:51:35.105Z,37.10
2022-09-26T21:53:45.907Z,33.70
2022-09-26T21:55:53.297Z,32.92
2022-09-26T21:58:00.651Z,37.03
2022-09-26T22:00:07.431Z,34.60
2022-09-26T22:02:15.869Z,39.10
2022-09-26T22:04:19.367Z,64.38
2022-09-26T22:06:21.945Z,80.63
2022-09-26T22:08:24.350Z,56.60
2022-09-26T22:10:28.124Z,48.45
2022-09-26T22:12:30.535Z,43.55
2022-09-26T22:14:32.937Z,34.88
2022-09-26T22:16:35.233Z,35.63
2022-09-26T22:18:39.196Z,34.75
2022-09-26T22:20:41.240Z,34.00
2022-09-26T22:22:44.169Z,31.65
2022-09-26T22:24:46.489Z,36.45
2022-09-26T22:26:48.656Z,36.63
2022-09-26T22:28:51.016Z,39.75
2022-09-26T22:30:55.105Z,35.20
2022-09-26T22:32:57.765Z,32.90
2022-09-26T22:34:59.938Z,32.60
2022-09-26T22:37:02.172Z,33.00
2022-09-26T22:39:05.120Z,28.88
2022-09-26T22:41:08.555Z,28.08
2022-09-26T22:43:11.187Z,23.05
2022-09-26T22:45:13.738Z,22.50
2022-09-26T22:47:15.855Z,26.10
2022-09-26T22:49:17.967Z,24.90
2022-09-26T22:51:19.981Z,23.08
2022-09-26T22:53:22.103Z,22.08
2022-09-26T22:55:24.797Z,24.95
2022-09-26T22:57:27.174Z,21.67
2022-09-26T22:59:29.431Z,24.98
2022-09-26T23:01:31.593Z,25.17
2022-09-26T23:03:34.772Z,26.70
2022-09-26T23:05:36.903Z,29.40
2022-09-26T23:07:39.196Z,24.02
2022-09-26T23:09:41.768Z,43.78
2022-09-26T23:11:44.210Z,61.25
2022-09-26T23:13:46.989Z,68.43
2022-09-26T23:15:49.274Z,73.75
2022-09-26T23:17:51.365Z,55.00
2022-09-26T23:19:56.568Z,48.80
2022-09-26T23:21:59.005Z,39.70
2022-09-26T23:24:01.597Z,35.47
2022-09-26T23:26:06.660Z,29.15
2022-09-26T23:28:09.193Z,31.13
2022-09-26T23:30:12.131Z,29.63
2022-09-26T23:32:14.673Z,30.50
2022-09-26T23:34:17.971Z,30.02
2022-09-26T23:36:20.693Z,33.53
2022-09-26T23:38:23.266Z,28.25
2022-09-26T23:40:26.606Z,30.63
2022-09-26T23:42:29.054Z,29.23
2022-09-26T23:44:35.475Z,30.45
2022-09-26T23:46:37.842Z,30.63
2022-09-26T23:48:40.507Z,32.97
2022-09-26T23:50:45.374Z,63.17
2022-09-26T23:52:47.689Z,80.95
2022-09-26T23:54:49.881Z,80.53
2022-09-26T23:56:52.086Z,69.88
2022-09-26T23:58:57.583Z,71.47
